Flight Track Log - Related Links

Times and Time Zones

All times are in EDT time to prevent confusion due to time zone crossing. See the N373LD flight status page for this flight to view local times or setup timezone preferences in your user account.

Time Position Orientation Groundspeed Altitude Reporting Facility
EDT Latitude Longitude Course Direction KTS MPH feet Rate Location/Type
Sun 04:26:19 PM 46.2069 -105.8103 159° South 184 212 11,200  Level Salt Lake Center
Sun 04:27:21 PM 46.1594 -105.7858 160° South 181 208 12,500 1,258 Climbing Salt Lake Center
Sun 04:28:23 PM 46.1078 -105.7600 161° South 185 213 13,800 1,220 Climbing Salt Lake Center
Sun 04:29:24 PM 46.0556 -105.7344 161° South 190 219 15,000 1,171 Climbing Salt Lake Center
Sun 04:30:00 PM 46.0414 -105.6941 161° South  Level Estimated
Sun 04:30:26 PM 46.0025 -105.7067 160° South 195 224 16,200  Level Salt Lake Center
Sun 04:31:00 PM 45.9780 -105.6584 159° South  Level FlightAware Approximate
Sun 04:31:28 PM 45.9489 -105.6806 161° South 196 226 17,400  Level Salt Lake Center
Sun 04:32:29 PM 45.8931 -105.6547 162° South 202 232 18,700 1,268 Climbing Salt Lake Center
Sun 04:33:31 PM 45.8264 -105.6208 160° South 205 236 20,000 1,161 Climbing Salt Lake Center
Sun 04:34:33 PM 45.7692 -105.5931 161° South 208 239 21,100 1,065 Climbing Salt Lake Center
Sun 04:35:35 PM 45.7111 -105.5644 161° South 213 245 22,200 1,113 Climbing Salt Lake Center
Sun 04:36:37 PM 45.6528 -105.5361 161° South 215 247 23,400 1,122 Climbing Salt Lake Center
Sun 04:37:38 PM 45.5958 -105.5086 161° South 215 247 24,500 927 Climbing Salt Lake Center
Sun 04:38:40 PM 45.5408 -105.4817 161° South 215 247 25,300 871 Climbing Salt Lake Center
Sun 04:39:42 PM 45.4819 -105.4536 162° South 217 250 26,300 823 Climbing Salt Lake Center
Sun 04:40:44 PM 45.4086 -105.4178 161° South 230 265 27,000 341 Climbing Salt Lake Center
Sun 04:41:45 PM 45.3422 -105.3864 162° South 246 283 27,000  Level Salt Lake Center
Sun 04:42:47 PM 45.2703 -105.3508 161° South 266 306 27,000  Level Salt Lake Center
Sun 04:43:49 PM 45.1989 -105.3150 161° South 269 310 27,000  Level Salt Lake Center
Sun 04:44:51 PM 45.1269 -105.2806 161° South 269 310 27,000  Level Salt Lake Center
Sun 04:45:53 PM 45.0550 -105.2464 161° South 271 312 27,000  Level Salt Lake Center
Sun 04:46:54 PM 44.9814 -105.2136 163° South 272 313 27,000  Level Salt Lake Center
Sun 04:47:56 PM 44.8956 -105.1722 161° South 273 314 27,000  Level Salt Lake Center
Sun 04:48:54 PM 44.8397 -105.1439 160° South 272 313 27,000  Level Denver Center
Sun 04:50:00 PM 44.7531 -105.1028 161° South 271 312 27,000  Level Salt Lake Center
Sun 04:51:02 PM 44.6792 -105.0692 162° South 271 312 27,000  Level Salt Lake Center
Sun 04:51:59 PM 44.6103 -105.0378 162° South 272 313 27,000  Level Denver Center
Sun 04:53:01 PM 44.5414 -105.0047 161° South 272 313 27,000  Level Denver Center
Sun 04:54:03 PM 44.4614 -104.9664 161° South 272 313 27,000  Level Denver Center
Sun 04:55:05 PM 44.3922 -104.9342 162° South 272 313 27,000  Level Denver Center
Sun 04:56:06 PM 44.3356 -104.9081 162° South 272 313 27,000  Level Denver Center
Sun 04:57:09 PM 44.2433 -104.8647 161° South 272 313 27,000  Level Denver Center
Sun 04:58:11 PM 44.1639 -104.8269 161° South 272 313 27,000  Level Denver Center
Sun 04:59:12 PM 44.0950 -104.7961 162° South 272 313 27,000  Level Denver Center
Sun 05:00:14 PM 44.0144 -104.7586 161° South 272 313 27,000  Level Denver Center
Sun 05:01:16 PM 43.9453 -104.7253 161° South 272 313 27,000  Level Denver Center
Sun 05:02:19 PM 43.8764 -104.6956 163° South 272 313 27,000  Level Denver Center
Sun 05:03:32 PM 43.7972 -104.6572 161° South 272 313 27,000  Level Denver Center
Sun 05:04:34 PM 43.7053 -104.6156 162° South 272 313 27,000  Level Denver Center
Sun 05:05:36 PM 43.6367 -104.5839 162° South 272 313 27,000  Level Denver Center
Sun 05:06:38 PM 43.5550 -104.5478 162° South 273 314 27,000  Level Denver Center
Sun 05:07:40 PM 43.4864 -104.5158 161° South 273 314 27,000  Level Denver Center
Sun 05:08:42 PM 43.4197 -104.4856 162° South 271 312 27,000  Level Denver Center
Sun 05:09:57 PM 43.3303 -104.4456 162° South 268 308 27,000  Level Denver Center
Sun 05:10:59 PM 43.2531 -104.4111 162° South 265 305 27,000  Level Denver Center
Sun 05:12:01 PM 43.1878 -104.3817 162° South 263 303 27,000  Level Denver Center
Sun 05:13:03 PM 43.1119 -104.3481 162° South 261 300 27,000  Level Denver Center
Sun 05:14:05 PM 43.0464 -104.3189 162° South 260 299 27,000  Level Denver Center
Sun 05:15:07 PM 42.9808 -104.2897 162° South 260 299 27,000  Level Denver Center
Sun 05:16:09 PM 42.9033 -104.2553 162° South 260 299 27,000  Level Denver Center
Sun 05:17:11 PM 42.8361 -104.2264 163° South 260 299 27,000  Level Denver Center
Sun 05:18:13 PM 42.7583 -104.1914 162° South 261 300 27,000  Level Denver Center
Sun 05:19:15 PM 42.6922 -104.1625 162° South 261 300 27,000  Level Denver Center
Sun 05:20:17 PM 42.6144 -104.1275 162° South 261 300 27,000  Level Denver Center
Sun 05:21:19 PM 42.5467 -104.0983 162° South 261 300 27,000  Level Denver Center
Sun 05:22:21 PM 42.4681 -104.0642 162° South 262 302 27,000  Level Denver Center
Sun 05:23:23 PM 42.4006 -104.0342 162° South 263 303 27,000  Level Denver Center
Sun 05:24:25 PM 42.3336 -104.0056 162° South 263 303 27,000  Level Denver Center
Sun 05:25:27 PM 42.2539 -103.9703 162° South 264 304 27,000  Level Denver Center
Sun 05:26:29 PM 42.1875 -103.9414 162° South 265 305 27,000  Level Denver Center
Sun 05:27:31 PM 42.1081 -103.9075 162° South 269 310 27,000  Level Denver Center
Sun 05:28:33 PM 42.0408 -103.8800 163° South 267 307 27,000  Level Denver Center
Sun 05:29:35 PM 41.9633 -103.8444 161° South 265 305 27,000  Level Denver Center
Sun 05:30:37 PM 41.8956 -103.8169 163° South 265 305 27,000  Level Denver Center
Sun 05:31:39 PM 41.8161 -103.7831 162° South 266 306 27,000  Level Denver Center
Sun 05:32:53 PM 41.7486 -103.7536 162° South 266 306 27,000  Level Denver Center
Sun 05:33:56 PM 41.6583 -103.7150 162° South 266 306 27,000  Level Denver Center
Sun 05:34:58 PM 41.5922 -103.6864 162° South 266 306 27,000  Level Denver Center
Sun 05:36:00 PM 41.5122 -103.6519 162° South 267 307 27,000  Level Denver Center
Sun 05:37:02 PM 41.4442 -103.6250 163° South 267 307 27,000  Level Denver Center
Sun 05:38:04 PM 41.3644 -103.5911 162° South 268 308 27,000  Level Denver Center
Sun 05:39:06 PM 41.2964 -103.5600 161° South 268 308 27,000  Level Denver Center
Sun 05:40:08 PM 41.2164 -103.5269 163° South 269 310 27,000  Level Denver Center
Sun 05:41:09 PM 41.1478 -103.4992 163° South 269 310 27,000  Level Denver Center
Sun 05:42:11 PM 41.0678 -103.4664 163° South 270 311 27,000  Level Denver Center
Sun 05:43:13 PM 40.9989 -103.4369 162° South 270 311 27,000  Level Denver Center
Sun 05:44:15 PM 40.9286 -103.4069 162° South 270 311 27,000  Level Denver Center
Sun 05:45:17 PM 40.8703 -103.3839 163° South 272 313 27,000  Level Denver Center
Sun 05:46:19 PM 40.7839 -103.3481 163° South 272 313 27,000  Level Denver Center
Sun 05:47:21 PM 40.6972 -103.3117 162° South 272 313 27,000  Level Denver Center
Sun 05:48:23 PM 40.6250 -103.2806 162° South 274 315 27,000  Level Denver Center
Sun 05:49:24 PM 40.5522 -103.2517 163° South 274 315 27,000  Level Denver Center
Sun 05:50:26 PM 40.4806 -103.2225 163° South 271 312 27,000  Level Denver Center
Sun 05:51:28 PM 40.4083 -103.1931 163° South 271 312 27,000  Level Denver Center
Sun 05:52:30 PM 40.3350 -103.1633 163° South 273 314 27,000  Level Denver Center
Sun 05:53:44 PM 40.2622 -103.1339 163° South 273 314 27,000  Level Denver Center
Sun 05:54:58 PM 40.1469 -103.0867 163° South 270 311 27,000  Level Denver Center
Sun 05:56:00 PM 40.0753 -103.0578 163° South 269 310 27,000  Level Denver Center
Sun 05:57:02 PM 40.0058 -103.0289 162° South 266 306 27,000  Level Denver Center
Sun 05:58:03 PM 39.9361 -103.0014 163° South 265 305 27,000  Level Denver Center
Sun 05:59:05 PM 39.8658 -102.9731 163° South 265 305 27,000  Level Denver Center
Sun 06:00:07 PM 39.8106 -102.9506 163° South 262 302 27,000  Level Denver Center
Sun 06:01:09 PM 39.7275 -102.9178 163° South 262 302 27,000  Level Denver Center
Sun 06:02:11 PM 39.6431 -102.8828 162° South 262 302 27,000  Level Denver Center
Sun 06:03:12 PM 39.5742 -102.8561 163° South 260 299 27,000  Level Denver Center
Sun 06:04:14 PM 39.5203 -102.8350 163° South 257 296 27,000  Level Denver Center
Sun 06:05:16 PM 39.4378 -102.8014 163° South 257 296 27,000  Level Denver Center
Sun 06:06:17 PM 39.3831 -102.7803 163° South 258 297 27,000  Level Denver Center
Sun 06:07:19 PM 39.3000 -102.7475 163° South 258 297 27,000  Level Denver Center
Sun 06:08:21 PM 39.2183 -102.7147 163° South 258 297 27,000  Level Denver Center
Sun 06:09:23 PM 39.1533 -102.6897 163° South 258 297 27,000  Level Denver Center
Sun 06:10:25 PM 39.0872 -102.6642 163° South 258 297 27,000  Level Denver Center
Sun 06:11:26 PM 39.0106 -102.6342 163° South 258 297 27,000  Level Denver Center
Sun 06:12:40 PM 38.9453 -102.6086 163° South 257 296 27,000  Level Denver Center
Sun 06:13:42 PM 38.8578 -102.5733 163° South 258 297 27,000  Level Denver Center
Sun 06:14:44 PM 38.7914 -102.5478 163° South 260 299 27,000  Level Denver Center
Sun 06:15:46 PM 38.7133 -102.5181 163° South 261 300 27,000  Level Denver Center
Sun 06:16:47 PM 38.6469 -102.4925 163° South 261 300 27,000  Level Denver Center
Sun 06:17:49 PM 38.5697 -102.4617 163° South 260 299 27,000  Level Denver Center
Sun 06:18:51 PM 38.5033 -102.4367 164° South 260 299 27,000  Level Denver Center
Sun 06:19:53 PM 38.4264 -102.4069 163° South 259 298 27,000  Level Denver Center
Sun 06:20:55 PM 38.3614 -102.3811 163° South 259 298 27,000  Level Denver Center
Sun 06:22:39 PM 38.2411 -102.3358 164° South 258 297 27,000  Level Kansas City Center
Sun 06:23:41 PM 38.1750 -102.3097 163° South 258 297 27,000  Level Kansas City Center
Sun 06:24:43 PM 38.0972 -102.2800 163° South 258 297 27,000  Level Kansas City Center
Sun 06:25:45 PM 38.0319 -102.2550 163° South 258 297 27,000  Level Kansas City Center
Sun 06:26:47 PM 37.9508 -102.2250 164° South 267 307 27,000  Level Kansas City Center
Sun 06:27:48 PM 37.8814 -102.1967 162° South 269 310 27,000  Level Kansas City Center
Sun 06:28:50 PM 37.8000 -102.1669 164° South 271 312 27,000  Level Kansas City Center
Sun 06:29:52 PM 37.7303 -102.1414 164° South 271 312 27,000  Level Kansas City Center
Sun 06:30:54 PM 37.6486 -102.1092 163° South 272 313 27,000 -242 Level Kansas City Center
Sun 06:31:56 PM 37.5789 -102.0831 163° South 272 313 26,500 -484 Descending Kansas City Center
Sun 06:32:58 PM 37.4947 -102.0514 163° South 278 320 26,000 -242 Descending Kansas City Center
Sun 06:34:00 PM 37.4244 -102.0250 163° South 278 320 26,000  Level Kansas City Center
Sun 06:35:02 PM 37.3456 -101.9958 164° South 270 311 26,000  Level Kansas City Center
Sun 06:36:04 PM 37.2781 -101.9700 163° South 269 310 26,000  Level Kansas City Center
Sun 06:37:06 PM 37.1986 -101.9414 164° South 269 310 26,000  Level Kansas City Center
Sun 06:38:08 PM 37.1308 -101.9150 163° South 268 308 26,000  Level Kansas City Center
Sun 06:39:12 PM 37.0531 -101.8875 164° South 266 306 26,000  Level Albuquerque Center
Sun 06:40:14 PM 36.9844 -101.8614 163° South 266 306 26,000  Level Albuquerque Center
Sun 06:41:16 PM 36.9017 -101.8300 163° South 274 315 26,000  Level Albuquerque Center
Sun 06:42:16 PM 36.8314 -101.8039 163° South 272 313 26,000  Level Kansas City Center
Sun 06:43:18 PM 36.7614 -101.7800 165° South 272 313 26,000  Level Kansas City Center
Sun 06:44:20 PM 36.6786 -101.7472 162° South 274 315 26,000  Level Kansas City Center
Sun 06:45:21 PM 36.6094 -101.7225 164° South 275 316 26,000 -528 Level Kansas City Center
Sun 06:46:25 PM 36.5208 -101.6928 165° South 276 318 24,900 -1,333 Descending Albuquerque Center
Sun 06:47:27 PM 36.4481 -101.6656 163° South 276 318 23,200 -1,694 Descending Albuquerque Center
Sun 06:48:29 PM 36.3736 -101.6378 163° South 276 318 21,400 -1,742 Descending Albuquerque Center
Sun 06:49:31 PM 36.3025 -101.6119 164° South 270 311 19,600 -1,805 Descending Albuquerque Center
Sun 06:50:32 PM 36.2361 -101.5878 164° South 256 295 17,700 -1,805 Descending Albuquerque Center
Sun 06:51:34 PM 36.1706 -101.5642 164° South 249 287 15,900 -1,935 Descending Albuquerque Center
Sun 06:52:36 PM 36.0953 -101.5375 164° South 241 277 13,700 -1,951 Descending Albuquerque Center
Sun 06:53:37 PM 36.0322 -101.5142 163° South 240 276 11,900 -1,707 Descending Albuquerque Center
Sun 06:54:39 PM 35.9742 -101.4917 163° South 226 260 10,200 -1,694 Descending Albuquerque Center
Sun 06:55:41 PM 35.9219 -101.4742 165° South 210 242 8,400 -1,659 Descending Albuquerque Center
Sun 06:56:42 PM 35.8731 -101.4572 164° South 196 226 6,800 -1,073 Descending Albuquerque Center
Sun 06:57:44 PM 35.8269 -101.4406 164° South 184 212 6,200 -581 Descending Albuquerque Center
Sun 06:59:00 PM 35.7388 -101.4081 163° South  Level FlightAware Approximate
Sun 07:06:00 PM 35.7000 -101.3833 141° Southeast  Level FlightAware Approximate
Sun 07:07:00 PM 35.7009 -101.3937 141° Southeast  Level Estimated

Login

Don't have an account? Register now (free) for customized features, flight alerts, and more!